Carthage, NC (28327)

1:13 PM EST on December 26, 2014 (GMT -0500)
Pine Lake - Whispering Pines NC | Change Station
CLOSE
Current Station
Personal Weather Station
Location: Whispering Pines, NC
Elevation: 367 ft
Nearby Weather Stations

Elev 367 ft 35.25 °N, 79.37 °W | Updated 15 seconds ago

Clear
Clear
57.3 °F
Feels Like 57.3 °F
N
0.0
Wind Variable Wind from North
Gusts 2.0 mph

Today
High -- | Low -- °F
--% Chance of Precip.
Yesterday
High -- | Low -- °F
Precip. -- in
7:24 AM 5:11 PM
Waxing Crescent, 28% visible
Pressure 30.30 in
Visibility 10.0 miles
Clouds Clear
Dew Point 39 °F
Humidity 50%
Rainfall 0.00 in
Snow Depth Not available.
UV 3 out of 12
Pollen 1.40 out of 12
Air Quality Not available.
Flu Activity Not available.
METAR KSOP 261755Z AUTO 00000KT 10SM CLR 13/01 A3030 RMK AO1 10140 21020 57027

More Conditions Fewer Conditions

Pressure 30.30 in
Visibility 10.0 miles
Clouds Clear
Dew Point 39 °F
Humidity 50%
Rainfall 0.00 in
Snow Depth Not available.
UV 3 out of 12
Pollen 1.40 out of 12
Air Quality Not available.
Flu Activity Not available.
METAR KSOP 261755Z AUTO 00000KT 10SM CLR 13/01 A3030 RMK AO1 10140 21020 57027

More Conditions Fewer Conditions

10-Day Weather Forecast

Almanac

Astronomy

Dec. 26, 2014 Rise Set
Actual Time
Civil Twilight
Nautical Twilight
Astronomical Twilight
Moon
Length of Visible Light
Length of Day
Tomorrow will be .
, % of the Moon is Illuminated

Today's Extremes

State Highs State Lows

Community

WunderPhotos

Upload Photos

1,780,659 photos uploaded!

WunderBlogs® & News

Nearby

Air Quality

  Air Quality AQ Index Pollutant
Not available.

Snow Depth

Station Depth Elevation

Earthquake Activity

City Distance Mag. Time & Date
Minimum magnitude displayed is 2.5.

Coastal Water Temperatures

Place Temperature

Nearby Weather Stations